createdAt,value
2023-11-15T00:03:10.006Z,4.83
2023-11-15T00:08:14.282Z,2.90
2023-11-15T00:13:17.259Z,3.80
2023-11-15T00:18:20.209Z,3.30
2023-11-15T00:23:24.920Z,3.23
2023-11-15T00:28:27.926Z,3.10
2023-11-15T00:33:30.962Z,2.57
2023-11-15T00:38:35.734Z,3.10
2023-11-15T00:43:38.638Z,3.40
2023-11-15T00:48:41.680Z,2.70
2023-11-15T00:53:45.861Z,2.70
2023-11-15T00:58:48.732Z,2.50
2023-11-15T01:03:58.074Z,2.60
2023-11-15T01:09:04.318Z,2.80
2023-11-15T01:14:07.273Z,3.30
2023-11-15T01:19:11.168Z,2.70
2023-11-15T01:24:15.504Z,2.47
2023-11-15T01:29:18.420Z,2.37
2023-11-15T01:34:21.710Z,3.00
2023-11-15T01:39:25.874Z,2.83
2023-11-15T01:44:28.737Z,2.10
2023-11-15T01:49:31.677Z,1.87
2023-11-15T01:54:36.313Z,2.33
2023-11-15T01:59:39.167Z,2.00
2023-11-15T02:04:42.104Z,2.10
2023-11-15T02:09:46.877Z,1.77
2023-11-15T02:14:49.936Z,1.17
2023-11-15T02:19:52.877Z,2.23
2023-11-15T02:24:57.059Z,1.83
2023-11-15T02:29:59.953Z,1.70
2023-11-15T02:35:03.964Z,1.80
2023-11-15T02:40:11.709Z,2.30
2023-11-15T02:45:15.404Z,3.43
2023-11-15T02:50:18.272Z,3.03
2023-11-15T02:55:22.443Z,2.63
2023-11-15T03:00:25.282Z,2.10
2023-11-15T03:05:28.883Z,1.90
2023-11-15T03:10:36.285Z,1.27
2023-11-15T03:15:39.259Z,1.57
2023-11-15T03:20:42.181Z,1.40
2023-11-15T03:25:46.405Z,1.10
2023-11-15T03:30:49.260Z,1.20
2023-11-15T03:35:52.133Z,1.10
2023-11-15T03:40:56.449Z,1.30
2023-11-15T03:45:59.766Z,1.20
2023-11-15T03:51:02.816Z,1.10
2023-11-15T03:56:09.592Z,1.00
2023-11-15T04:01:12.469Z,1.10
2023-11-15T04:06:15.455Z,1.00
2023-11-15T04:11:19.737Z,2.40
2023-11-15T04:16:22.896Z,1.30
2023-11-15T04:21:25.778Z,1.50
2023-11-15T04:26:30.140Z,2.83
2023-11-15T04:31:34.466Z,2.70
2023-11-15T04:36:37.944Z,3.73
2023-11-15T04:41:42.177Z,3.30
2023-11-15T04:46:45.336Z,2.93
2023-11-15T04:51:48.290Z,3.50
2023-11-15T04:56:52.975Z,4.73
2023-11-15T05:01:55.858Z,5.80
2023-11-15T05:06:58.747Z,4.30
2023-11-15T05:12:03.028Z,4.77
2023-11-15T05:17:05.983Z,3.90
2023-11-15T05:22:09.091Z,4.60
2023-11-15T05:27:13.566Z,4.80
2023-11-15T05:32:16.394Z,3.57
2023-11-15T05:37:19.231Z,3.57
2023-11-15T05:42:23.393Z,4.47
2023-11-15T05:47:27.697Z,4.67
2023-11-15T05:52:30.587Z,3.87
2023-11-15T05:57:34.928Z,4.10
2023-11-15T06:02:37.828Z,6.27
2023-11-15T06:07:40.701Z,5.50
2023-11-15T06:12:44.951Z,6.13
2023-11-15T06:17:48.622Z,5.93
2023-11-15T06:22:51.755Z,6.60
2023-11-15T06:27:56.154Z,6.33
2023-11-15T06:32:59.576Z,6.67
2023-11-15T06:38:02.748Z,6.60
2023-11-15T06:43:07.132Z,5.73
2023-11-15T06:48:13.112Z,5.63
2023-11-15T06:53:16.141Z,5.30
2023-11-15T06:58:20.743Z,6.10
2023-11-15T07:03:24.041Z,4.40
2023-11-15T07:08:27.554Z,5.77
2023-11-15T07:13:32.439Z,4.97
2023-11-15T07:18:35.912Z,4.70
2023-11-15T07:23:41.328Z,4.30
2023-11-15T07:28:45.637Z,4.37
2023-11-15T07:33:48.529Z,4.13
2023-11-15T07:38:51.492Z,4.83
2023-11-15T07:43:56.460Z,4.57
2023-11-15T07:49:00.898Z,5.17
2023-11-15T07:54:05.493Z,6.10
2023-11-15T07:59:09.782Z,4.60
2023-11-15T08:04:13.167Z,5.10
2023-11-15T08:09:26.081Z,5.50
2023-11-15T08:14:33.056Z,4.30
2023-11-15T08:19:35.993Z,4.80
2023-11-15T08:24:39.504Z,5.10
2023-11-15T08:29:45.136Z,5.33
2023-11-15T08:34:48.005Z,4.50
2023-11-15T08:39:50.811Z,4.90
2023-11-15T08:44:55.250Z,6.20
2023-11-15T08:49:58.138Z,4.87
2023-11-15T08:55:00.942Z,5.40
2023-11-15T09:00:08.436Z,4.20
2023-11-15T09:05:11.882Z,3.90
2023-11-15T09:10:15.434Z,5.53
2023-11-15T09:15:23.598Z,4.70
2023-11-15T09:20:28.484Z,4.90
2023-11-15T09:25:32.196Z,5.17
2023-11-15T09:30:36.599Z,4.97
2023-11-15T09:35:46.566Z,6.10
2023-11-15T09:40:56.436Z,6.07
2023-11-15T09:46:09.654Z,5.27
2023-11-15T09:51:15.352Z,5.43
2023-11-15T10:01:28.533Z,4.10
2023-11-15T10:06:41.532Z,5.73
2023-11-15T10:11:50.095Z,5.37
2023-11-15T10:16:54.591Z,4.90
2023-11-15T10:21:58.759Z,4.93
2023-11-15T10:27:08.568Z,7.43
2023-11-15T10:32:12.816Z,5.50
2023-11-15T10:37:17.579Z,5.00
2023-11-15T10:42:20.579Z,4.80
2023-11-15T10:47:25.648Z,4.40
2023-11-15T10:52:30.436Z,4.60
2023-11-15T10:57:34.457Z,3.73
2023-11-15T11:02:41.904Z,4.63
2023-11-15T11:07:58.311Z,3.90
2023-11-15T11:13:01.325Z,4.43
2023-11-15T11:18:06.949Z,4.03
2023-11-15T11:23:12.930Z,4.23
2023-11-15T11:28:15.941Z,4.70
2023-11-15T11:33:23.254Z,4.03
2023-11-15T11:38:43.046Z,4.30
2023-11-15T11:43:56.470Z,4.67
2023-11-15T11:49:01.939Z,4.20
2023-11-15T11:54:05.482Z,3.93
2023-11-15T11:59:13.955Z,4.43
2023-11-15T12:04:18.515Z,3.27
2023-11-15T12:09:24.881Z,4.00
2023-11-15T12:14:27.934Z,3.50
2023-11-15T12:19:43.949Z,3.13
2023-11-15T12:24:47.302Z,4.50
2023-11-15T12:29:53.696Z,3.40
2023-11-15T12:34:58.700Z,4.00
2023-11-15T12:40:01.616Z,4.40
2023-11-15T12:45:05.670Z,4.27
2023-11-15T12:50:10.686Z,4.23
2023-11-15T12:55:13.631Z,4.20
2023-11-15T13:00:29.333Z,3.33
2023-11-15T13:05:33.578Z,3.50
2023-11-15T13:10:36.419Z,2.80
2023-11-15T13:15:39.856Z,3.40
2023-11-15T13:20:44.096Z,3.50
2023-11-15T13:25:47.194Z,3.77
2023-11-15T13:30:50.217Z,4.17
2023-11-15T13:35:54.556Z,3.53
2023-11-15T13:40:58.510Z,3.70
2023-11-15T13:46:01.426Z,2.77
2023-11-15T13:51:32.216Z,2.87
2023-11-15T13:56:37.976Z,3.80
2023-11-15T14:01:41.990Z,3.60
2023-11-15T14:06:47.961Z,3.83
2023-11-15T14:11:52.709Z,4.80
2023-11-15T14:16:56.071Z,2.87
2023-11-15T14:22:01.071Z,2.50
2023-11-15T14:27:05.009Z,2.47
2023-11-15T14:32:08.933Z,2.40
2023-11-15T14:37:13.348Z,1.90
2023-11-15T14:42:19.384Z,2.70
2023-11-15T14:47:42.524Z,1.80
2023-11-15T14:52:54.126Z,2.20
2023-11-15T14:57:57.736Z,1.70
2023-11-15T15:03:02.338Z,2.60
2023-11-15T15:08:09.191Z,2.57
2023-11-15T15:13:13.695Z,4.20
2023-11-15T15:18:21.742Z,2.57
2023-11-15T15:23:30.297Z,3.10
2023-11-15T15:28:34.269Z,3.70
2023-11-15T15:33:37.842Z,1.93
2023-11-15T15:38:42.164Z,2.63
2023-11-15T15:43:45.675Z,1.97
2023-11-15T15:48:50.820Z,2.20
2023-11-15T15:53:55.507Z,1.30
2023-11-15T15:58:58.348Z,1.80
2023-11-15T16:04:01.388Z,2.90
2023-11-15T16:09:05.787Z,2.10
2023-11-15T16:14:08.680Z,1.57
2023-11-15T16:19:11.515Z,1.97
2023-11-15T16:24:16.314Z,2.50
2023-11-15T16:29:19.333Z,2.80
2023-11-15T16:34:24.089Z,2.27
2023-11-15T16:39:28.492Z,2.50
2023-11-15T16:44:34.543Z,2.30
2023-11-15T16:49:37.535Z,3.30
2023-11-15T16:54:42.554Z,3.10
2023-11-15T16:59:45.463Z,3.53
2023-11-15T17:04:48.678Z,3.27
2023-11-15T17:09:53.283Z,2.93
2023-11-15T17:14:57.381Z,2.87
2023-11-15T17:20:01.309Z,2.83
2023-11-15T17:25:18.937Z,3.30
2023-11-15T17:30:23.149Z,3.13
2023-11-15T17:35:26.499Z,2.80
2023-11-15T17:40:32.214Z,3.93
2023-11-15T17:45:35.236Z,3.20
2023-11-15T17:50:38.323Z,2.80
2023-11-15T17:55:44.079Z,3.47
2023-11-15T18:00:47.398Z,6.10
2023-11-15T18:05:50.300Z,3.40
2023-11-15T18:10:54.725Z,3.30
2023-11-15T18:15:57.586Z,2.50
2023-11-15T18:21:00.449Z,3.13
2023-11-15T18:26:05.706Z,3.53
2023-11-15T18:31:08.740Z,3.20
2023-11-15T18:36:12.977Z,2.73
2023-11-15T18:41:17.501Z,3.30
2023-11-15T18:46:20.681Z,2.83
2023-11-15T18:51:25.707Z,3.60
2023-11-15T18:56:30.426Z,4.90
2023-11-15T19:01:33.482Z,3.10
2023-11-15T19:06:37.488Z,3.70
2023-11-15T19:11:41.726Z,2.80
2023-11-15T19:16:44.644Z,3.47
2023-11-15T19:21:47.438Z,2.90
2023-11-15T19:26:51.737Z,3.17
2023-11-15T19:31:54.674Z,3.50
2023-11-15T19:36:57.517Z,3.37
2023-11-15T19:42:01.781Z,2.90
2023-11-15T19:47:05.217Z,2.80
2023-11-15T19:52:12.463Z,2.70
2023-11-15T19:57:18.358Z,3.70
2023-11-15T20:02:21.639Z,3.40
2023-11-15T20:07:26.809Z,3.37
2023-11-15T20:12:32.200Z,2.60
2023-11-15T20:17:35.301Z,3.27
2023-11-15T20:22:45.885Z,3.00
2023-11-15T20:27:55.466Z,3.27
2023-11-15T20:32:58.514Z,2.70
2023-11-15T20:38:01.420Z,2.97
2023-11-15T20:43:05.998Z,3.10
2023-11-15T20:48:18.882Z,3.07
2023-11-15T20:53:21.805Z,2.50
2023-11-15T20:58:27.468Z,3.40
2023-11-15T21:03:31.823Z,3.43
2023-11-15T21:08:35.944Z,2.87
2023-11-15T21:13:42.333Z,2.73
2023-11-15T21:18:47.735Z,3.13
2023-11-15T21:23:51.163Z,2.97
2023-11-15T21:28:55.417Z,3.10
2023-11-15T21:33:58.409Z,3.37
2023-11-15T21:39:03.101Z,3.27
2023-11-15T21:44:07.769Z,3.03
2023-11-15T21:49:12.294Z,3.53
2023-11-15T21:54:15.507Z,3.60
2023-11-15T21:59:19.927Z,3.33
2023-11-15T22:04:23.390Z,2.47
2023-11-15T22:09:27.620Z,3.50
2023-11-15T22:14:32.163Z,3.10
2023-11-15T22:19:35.246Z,2.93
2023-11-15T22:24:38.093Z,2.67
2023-11-15T22:29:42.693Z,2.70
2023-11-15T22:34:45.517Z,3.30
2023-11-15T22:39:48.711Z,2.90
2023-11-15T22:44:53.673Z,3.00
2023-11-15T22:49:56.544Z,2.70
2023-11-15T22:55:00.176Z,2.60
2023-11-15T23:00:06.457Z,2.70
2023-11-15T23:05:10.071Z,3.00
2023-11-15T23:10:13.149Z,2.03
2023-11-15T23:15:17.375Z,3.77
2023-11-15T23:20:20.333Z,2.90
2023-11-15T23:25:26.840Z,3.20
2023-11-15T23:30:31.038Z,2.87
2023-11-15T23:35:34.171Z,3.40
2023-11-15T23:40:37.204Z,3.47
2023-11-15T23:45:44.672Z,3.37
2023-11-15T23:50:47.539Z,2.77
2023-11-15T23:55:51.135Z,3.80
